Portada
METAR-TAF:

METAR-TAF

Aeropuertos :

Madrid, España

Aeropuerto de Madrid-Barajas

latitud: 40-27N, longitud: 003-33W, altitud: 609 m

Observación

El informe se hizo hace 27 minutos, a las 15:30 UTC
Viento 4 kt del este-sureste, variando entre este-noreste y sureste
Temperatura 9°C
Humedad 46%
Presión 1018 hPa
Visibilidad 10 km o más
sin nubes por debajo de 1500 m y sin presencia de cumulonimbus.

METAR: LEMD 121530Z 11004KT 060V140 CAVOK 09/M02 Q1018 NOSIG

Hora: 16:57 (15:57 UTC)

Pronóstico

El informe se hizo hace 4 horas y 57 minutos, a las 11:00 UTC
Pronóstico válido del 12 a las 12 UTC al 13 a las 18 UTC
Viento 5 kt con dirección variable
Visibilidad 10 km o más
sin nubes por debajo de 1500 m y sin presencia de cumulonimbus.

TAF: LEMD 121100Z 1212/1318 VRB05KT CAVOK TX11/1214Z TN01/1307Z

Observaciones y pronósticos meteorológicos de más de 4000 aeropuertos (mensajes METAR y TAF).

Los puntos amarillos y rojos representan las estaciones disponibles.

Ponga el ratón en el punto deseado para ver el nombre de la estación.

Haga clic para ver las observaciones y los pronósticos meteorológicos.

Para cambiar el mapa : haga clic en los botones verdes con una cruz de color negro para hacer un zoom, en el botón verde con un guión para alejar o en las flechas verdes para mapas adyacentes.


METAR-TAF: